Terminal Aerodrome Forecast
Issued by NWS

Home | Current Version | Previous Version | Graphics & Text | Print | Product List | Glossary On
Versions: 1 2 3 4 5 6 7 8 9 10 11 12 13 14 15
000
FTUS43 KFGF 162330
TAFBJI
TAF
KBJI 162330Z 1700/1724 22005KT P6SM BKN150
     FM171800 23013KT P6SM SKC=

USA.gov is the U.S. government's official web portal to all federal, state and local government web resources and services.